sensor_id;sensor_type;location;lat;lon;timestamp;pressure;altitude;pressure_sealevel;temperature;humidity
64908;BME280;69061;52.236;5.188;2024-03-08T00:01:26;101903.16;;;6.00;80.80
64908;BME280;69061;52.236;5.188;2024-03-08T00:03:52;101881.06;;;5.96;80.60
64908;BME280;69061;52.236;5.188;2024-03-08T00:06:19;101893.06;;;6.02;79.97
64908;BME280;69061;52.236;5.188;2024-03-08T00:08:46;101888.88;;;6.01;79.31
64908;BME280;69061;52.236;5.188;2024-03-08T00:11:14;101886.84;;;5.98;80.45
64908;BME280;69061;52.236;5.188;2024-03-08T00:13:41;101872.66;;;5.94;81.25
64908;BME280;69061;52.236;5.188;2024-03-08T00:16:07;101884.69;;;6.00;80.04
64908;BME280;69061;52.236;5.188;2024-03-08T00:18:34;101882.81;;;6.00;79.17
64908;BME280;69061;52.236;5.188;2024-03-08T00:21:01;101882.91;;;5.95;78.93
64908;BME280;69061;52.236;5.188;2024-03-08T00:23:27;101882.91;;;5.95;79.38
64908;BME280;69061;52.236;5.188;2024-03-08T00:25:54;101876.38;;;5.93;79.09
64908;BME280;69061;52.236;5.188;2024-03-08T00:28:22;101870.34;;;5.92;79.28
64908;BME280;69061;52.236;5.188;2024-03-08T00:30:50;101865.06;;;5.92;78.79
64908;BME280;69061;52.236;5.188;2024-03-08T00:33:16;101849.94;;;5.75;78.53
64908;BME280;69061;52.236;5.188;2024-03-08T00:35:43;101864.88;;;5.88;78.45
64908;BME280;69061;52.236;5.188;2024-03-08T00:38:10;101872.16;;;5.83;79.09
64908;BME280;69061;52.236;5.188;2024-03-08T00:40:36;101867.00;;;5.78;77.86
64908;BME280;69061;52.236;5.188;2024-03-08T00:43:03;101865.16;;;5.78;78.00
64908;BME280;69061;52.236;5.188;2024-03-08T00:45:31;101853.19;;;5.72;80.12
64908;BME280;69061;52.236;5.188;2024-03-08T00:47:58;101852.72;;;5.70;78.99
64908;BME280;69061;52.236;5.188;2024-03-08T00:50:24;101852.22;;;5.68;78.85
64908;BME280;69061;52.236;5.188;2024-03-08T00:52:51;101850.66;;;5.67;79.72
64908;BME280;69061;52.236;5.188;2024-03-08T00:55:18;101849.91;;;5.66;79.49
64908;BME280;69061;52.236;5.188;2024-03-08T00:57:45;101851.91;;;5.69;80.32
64908;BME280;69061;52.236;5.188;2024-03-08T01:00:12;101854.75;;;5.73;79.32
64908;BME280;69061;52.236;5.188;2024-03-08T01:02:40;101846.34;;;5.71;78.96
64908;BME280;69061;52.236;5.188;2024-03-08T01:05:08;101844.50;;;5.71;80.41
64908;BME280;69061;52.236;5.188;2024-03-08T01:07:35;101842.63;;;5.72;81.42
64908;BME280;69061;52.236;5.188;2024-03-08T01:10:01;101832.69;;;5.69;80.67
64908;BME280;69061;52.236;5.188;2024-03-08T01:12:28;101830.66;;;5.66;81.56
64908;BME280;69061;52.236;5.188;2024-03-08T01:14:55;101828.50;;;5.68;82.05
64908;BME280;69061;52.236;5.188;2024-03-08T01:17:23;101834.38;;;5.65;81.51
64908;BME280;69061;52.236;5.188;2024-03-08T01:19:51;101805.63;;;5.54;80.96
64908;BME280;69061;52.236;5.188;2024-03-08T01:22:18;101817.00;;;5.64;81.83
64908;BME280;69061;52.236;5.188;2024-03-08T01:24:45;101811.25;;;5.62;80.31
64908;BME280;69061;52.236;5.188;2024-03-08T01:27:11;101811.53;;;5.60;81.09
64908;BME280;69061;52.236;5.188;2024-03-08T01:29:38;101810.78;;;5.60;80.33
64908;BME280;69061;52.236;5.188;2024-03-08T01:32:05;101795.69;;;5.51;79.58
64908;BME280;69061;52.236;5.188;2024-03-08T01:34:31;101806.72;;;5.53;79.35
64908;BME280;69061;52.236;5.188;2024-03-08T01:36:59;101804.97;;;5.49;78.67
64908;BME280;69061;52.236;5.188;2024-03-08T01:39:26;101798.00;;;5.44;79.05
64908;BME280;69061;52.236;5.188;2024-03-08T01:41:53;101791.78;;;5.40;79.48
64908;BME280;69061;52.236;5.188;2024-03-08T01:44:20;101789.91;;;5.40;78.10
64908;BME280;69061;52.236;5.188;2024-03-08T01:46:47;101784.16;;;5.38;77.67
64908;BME280;69061;52.236;5.188;2024-03-08T01:49:14;101778.72;;;5.35;79.28
64908;BME280;69061;52.236;5.188;2024-03-08T01:51:43;101763.22;;;5.33;79.88
64908;BME280;69061;52.236;5.188;2024-03-08T01:54:11;101768.94;;;5.35;79.16
64908;BME280;69061;52.236;5.188;2024-03-08T01:56:39;101754.34;;;5.29;80.79
64908;BME280;69061;52.236;5.188;2024-03-08T01:59:06;101768.19;;;5.35;79.53
64908;BME280;69061;52.236;5.188;2024-03-08T02:01:34;101773.75;;;5.33;79.87
64908;BME280;69061;52.236;5.188;2024-03-08T02:04:01;101772.50;;;5.31;78.74
64908;BME280;69061;52.236;5.188;2024-03-08T02:06:27;101771.56;;;5.27;78.09
64908;BME280;69061;52.236;5.188;2024-03-08T02:08:55;101769.03;;;5.21;79.47
64908;BME280;69061;52.236;5.188;2024-03-08T02:11:23;101760.19;;;5.17;80.18
64908;BME280;69061;52.236;5.188;2024-03-08T02:13:49;101751.44;;;5.08;81.30
64908;BME280;69061;52.236;5.188;2024-03-08T02:16:20;101761.88;;;5.13;79.23
64908;BME280;69061;52.236;5.188;2024-03-08T02:18:46;101760.78;;;5.14;79.44
64908;BME280;69061;52.236;5.188;2024-03-08T02:21:16;101748.34;;;5.06;80.75
64908;BME280;69061;52.236;5.188;2024-03-08T02:23:44;101759.41;;;5.17;80.79
64908;BME280;69061;52.236;5.188;2024-03-08T02:26:10;101747.00;;;5.17;80.33
64908;BME280;69061;52.236;5.188;2024-03-08T02:28:37;101748.38;;;5.15;80.59
64908;BME280;69061;52.236;5.188;2024-03-08T02:31:04;101745.94;;;5.18;83.11
64908;BME280;69061;52.236;5.188;2024-03-08T02:33:33;101735.53;;;5.13;81.67
64908;BME280;69061;52.236;5.188;2024-03-08T02:36:00;101730.88;;;5.19;81.19
64908;BME280;69061;52.236;5.188;2024-03-08T02:38:28;101735.41;;;5.18;81.15
64908;BME280;69061;52.236;5.188;2024-03-08T02:40:55;101731.00;;;5.14;81.07
64908;BME280;69061;52.236;5.188;2024-03-08T02:43:22;101728.06;;;5.15;80.85
64908;BME280;69061;52.236;5.188;2024-03-08T02:45:50;101713.50;;;5.09;80.30
64908;BME280;69061;52.236;5.188;2024-03-08T02:48:18;101721.69;;;5.08;79.67
64908;BME280;69061;52.236;5.188;2024-03-08T02:50:46;101704.28;;;4.98;79.72
64908;BME280;69061;52.236;5.188;2024-03-08T02:53:13;101713.75;;;4.99;80.82
64908;BME280;69061;52.236;5.188;2024-03-08T02:55:41;101715.28;;;5.00;80.36
64908;BME280;69061;52.236;5.188;2024-03-08T02:58:08;101705.84;;;4.99;80.40
64908;BME280;69061;52.236;5.188;2024-03-08T03:00:35;101703.38;;;5.02;81.14
64908;BME280;69061;52.236;5.188;2024-03-08T03:03:03;101707.56;;;5.03;79.40
64908;BME280;69061;52.236;5.188;2024-03-08T03:05:30;101709.84;;;4.96;80.37
64908;BME280;69061;52.236;5.188;2024-03-08T03:07:56;101693.53;;;4.85;80.02
64908;BME280;69061;52.236;5.188;2024-03-08T03:10:23;101690.88;;;4.85;79.88
64908;BME280;69061;52.236;5.188;2024-03-08T03:12:52;101697.78;;;4.95;80.78
64908;BME280;69061;52.236;5.188;2024-03-08T03:15:19;101692.31;;;4.92;79.63
64908;BME280;69061;52.236;5.188;2024-03-08T03:17:46;101690.44;;;4.92;79.28
64908;BME280;69061;52.236;5.188;2024-03-08T03:20:14;101685.63;;;4.85;80.95
64908;BME280;69061;52.236;5.188;2024-03-08T03:22:48;101680.19;;;4.82;81.28
64908;BME280;69061;52.236;5.188;2024-03-08T03:25:17;101684.22;;;4.79;79.30
64908;BME280;69061;52.236;5.188;2024-03-08T03:27:48;101685.09;;;4.75;80.08
64908;BME280;69061;52.236;5.188;2024-03-08T03:30:17;101683.41;;;4.79;82.57
64908;BME280;69061;52.236;5.188;2024-03-08T03:32:47;101680.00;;;4.78;81.47
64908;BME280;69061;52.236;5.188;2024-03-08T03:35:15;101670.72;;;4.81;82.13
64908;BME280;69061;52.236;5.188;2024-03-08T03:37:42;101676.19;;;4.84;82.09
64908;BME280;69061;52.236;5.188;2024-03-08T03:40:12;101671.50;;;4.81;80.73
64908;BME280;69061;52.236;5.188;2024-03-08T03:42:39;101667.91;;;4.77;80.45
64908;BME280;69061;52.236;5.188;2024-03-08T03:45:06;101661.09;;;4.76;79.59
64908;BME280;69061;52.236;5.188;2024-03-08T03:47:36;101666.97;;;4.73;80.36
64908;BME280;69061;52.236;5.188;2024-03-08T03:50:04;101644.50;;;4.67;79.93
64908;BME280;69061;52.236;5.188;2024-03-08T03:52:31;101651.59;;;4.66;79.67
64908;BME280;69061;52.236;5.188;2024-03-08T03:54:57;101658.13;;;4.69;79.37
64908;BME280;69061;52.236;5.188;2024-03-08T03:57:24;101656.84;;;4.66;78.99
64908;BME280;69061;52.236;5.188;2024-03-08T03:59:50;101662.44;;;4.65;78.79
64908;BME280;69061;52.236;5.188;2024-03-08T04:02:17;101659.44;;;4.58;78.09
64908;BME280;69061;52.236;5.188;2024-03-08T04:04:47;101655.06;;;4.53;78.06
64908;BME280;69061;52.236;5.188;2024-03-08T04:07:14;101662.81;;;4.49;78.54
64908;BME280;69061;52.236;5.188;2024-03-08T04:09:41;101657.06;;;4.47;77.69
64908;BME280;69061;52.236;5.188;2024-03-08T04:12:07;101652.09;;;4.46;77.69
64908;BME280;69061;52.236;5.188;2024-03-08T04:14:35;101656.72;;;4.40;78.09
64908;BME280;69061;52.236;5.188;2024-03-08T04:17:01;101642.91;;;4.34;77.58
64908;BME280;69061;52.236;5.188;2024-03-08T04:19:28;101648.63;;;4.36;78.78
64908;BME280;69061;52.236;5.188;2024-03-08T04:21:56;101641.03;;;4.35;79.00
64908;BME280;69061;52.236;5.188;2024-03-08T04:24:23;101625.31;;;4.21;78.67
64908;BME280;69061;52.236;5.188;2024-03-08T04:26:50;101624.22;;;4.22;78.16
64908;BME280;69061;52.236;5.188;2024-03-08T04:29:17;101639.97;;;4.36;79.41
64908;BME280;69061;52.236;5.188;2024-03-08T04:31:43;101638.22;;;4.31;78.59
64908;BME280;69061;52.236;5.188;2024-03-08T04:34:10;101640.06;;;4.31;78.81
64908;BME280;69061;52.236;5.188;2024-03-08T04:36:37;101634.31;;;4.29;78.49
64908;BME280;69061;52.236;5.188;2024-03-08T04:39:05;101640.06;;;4.31;79.05
64908;BME280;69061;52.236;5.188;2024-03-08T04:41:35;101642.91;;;4.34;79.91
64908;BME280;69061;52.236;5.188;2024-03-08T04:44:03;101633.31;;;4.38;79.39
64908;BME280;69061;52.236;5.188;2024-03-08T04:46:30;101618.41;;;4.34;79.16
64908;BME280;69061;52.236;5.188;2024-03-08T04:48:56;101617.66;;;4.33;78.19
64908;BME280;69061;52.236;5.188;2024-03-08T04:51:24;101629.78;;;4.43;77.75
64908;BME280;69061;52.236;5.188;2024-03-08T04:53:51;101626.69;;;4.41;77.97
64908;BME280;69061;52.236;5.188;2024-03-08T04:56:19;101620.16;;;4.38;79.29
64908;BME280;69061;52.236;5.188;2024-03-08T04:58:46;101620.16;;;4.38;79.90
64908;BME280;69061;52.236;5.188;2024-03-08T05:01:13;101624.06;;;4.41;80.60
64908;BME280;69061;52.236;5.188;2024-03-08T05:03:40;101607.44;;;4.32;78.76
64908;BME280;69061;52.236;5.188;2024-03-08T05:06:06;101615.66;;;4.39;79.71
64908;BME280;69061;52.236;5.188;2024-03-08T05:08:33;101615.56;;;4.44;79.80
64908;BME280;69061;52.236;5.188;2024-03-08T05:11:00;101614.91;;;4.38;80.18
64908;BME280;69061;52.236;5.188;2024-03-08T05:13:30;101616.75;;;4.38;81.08
64908;BME280;69061;52.236;5.188;2024-03-08T05:15:57;101613.03;;;4.39;81.33
64908;BME280;69061;52.236;5.188;2024-03-08T05:18:24;101608.38;;;4.36;80.06
64908;BME280;69061;52.236;5.188;2024-03-08T05:20:53;101609.44;;;4.35;78.61
64908;BME280;69061;52.236;5.188;2024-03-08T05:23:20;101607.53;;;4.27;78.47
64908;BME280;69061;52.236;5.188;2024-03-08T05:25:47;101609.75;;;4.33;79.28
64908;BME280;69061;52.236;5.188;2024-03-08T05:28:14;101602.16;;;4.32;77.27
64908;BME280;69061;52.236;5.188;2024-03-08T05:30:42;101598.59;;;4.28;78.46
64908;BME280;69061;52.236;5.188;2024-03-08T05:33:08;101607.88;;;4.34;78.25
64908;BME280;69061;52.236;5.188;2024-03-08T05:35:35;101572.63;;;4.12;79.49
64908;BME280;69061;52.236;5.188;2024-03-08T05:38:02;101603.00;;;4.41;81.54
64908;BME280;69061;52.236;5.188;2024-03-08T05:40:29;101602.09;;;4.46;82.15
64908;BME280;69061;52.236;5.188;2024-03-08T05:42:57;101597.59;;;4.46;79.35
64908;BME280;69061;52.236;5.188;2024-03-08T05:45:23;101603.16;;;4.45;78.76
64908;BME280;69061;52.236;5.188;2024-03-08T05:47:52;101591.56;;;4.46;79.18
64908;BME280;69061;52.236;5.188;2024-03-08T05:50:19;101600.41;;;4.50;78.97
64908;BME280;69061;52.236;5.188;2024-03-08T05:52:45;101594.50;;;4.44;76.79
64908;BME280;69061;52.236;5.188;2024-03-08T05:55:13;101592.94;;;4.43;77.32
64908;BME280;69061;52.236;5.188;2024-03-08T05:57:40;101587.63;;;4.34;77.23
64908;BME280;69061;52.236;5.188;2024-03-08T06:00:08;101596.75;;;4.37;78.97
64908;BME280;69061;52.236;5.188;2024-03-08T06:02:36;101584.09;;;4.39;78.57
64908;BME280;69061;52.236;5.188;2024-03-08T06:05:08;101578.94;;;4.34;77.75
64908;BME280;69061;52.236;5.188;2024-03-08T06:07:35;101579.13;;;4.37;78.58
64908;BME280;69061;52.236;5.188;2024-03-08T06:10:01;101583.31;;;4.38;77.88
64908;BME280;69061;52.236;5.188;2024-03-08T06:12:28;101582.81;;;4.36;77.04
64908;BME280;69061;52.236;5.188;2024-03-08T06:14:58;101566.69;;;4.29;76.08
64908;BME280;69061;52.236;5.188;2024-03-08T06:17:25;101570.59;;;4.32;76.94
64908;BME280;69061;52.236;5.188;2024-03-08T06:19:51;101577.22;;;4.29;76.31
64908;BME280;69061;52.236;5.188;2024-03-08T06:22:21;101571.16;;;4.29;77.76
64908;BME280;69061;52.236;5.188;2024-03-08T06:24:47;101577.09;;;4.34;78.86
64908;BME280;69061;52.236;5.188;2024-03-08T06:27:14;101573.53;;;4.30;76.29
64908;BME280;69061;52.236;5.188;2024-03-08T06:29:40;101579.56;;;4.31;76.93
64908;BME280;69061;52.236;5.188;2024-03-08T06:32:07;101582.94;;;4.31;77.22
64908;BME280;69061;52.236;5.188;2024-03-08T06:34:34;101579.25;;;4.32;75.90
64908;BME280;69061;52.236;5.188;2024-03-08T06:37:00;101574.59;;;4.29;75.98
64908;BME280;69061;52.236;5.188;2024-03-08T06:39:28;101579.06;;;4.29;77.94
64908;BME280;69061;52.236;5.188;2024-03-08T06:41:57;101575.53;;;4.33;77.88
64908;BME280;69061;52.236;5.188;2024-03-08T06:44:23;101573.69;;;4.34;75.64
64908;BME280;69061;52.236;5.188;2024-03-08T06:46:51;101571.53;;;4.36;76.93
64908;BME280;69061;52.236;5.188;2024-03-08T06:49:17;101570.94;;;4.39;76.20
64908;BME280;69061;52.236;5.188;2024-03-08T06:51:44;101564.75;;;4.44;78.78
64908;BME280;69061;52.236;5.188;2024-03-08T06:54:11;101573.53;;;4.62;79.03
64908;BME280;69061;52.236;5.188;2024-03-08T06:56:39;101575.59;;;4.74;77.84
64908;BME280;69061;52.236;5.188;2024-03-08T06:59:05;101573.47;;;4.84;77.72
64908;BME280;69061;52.236;5.188;2024-03-08T07:01:35;101574.56;;;4.92;75.94
64908;BME280;69061;52.236;5.188;2024-03-08T07:04:02;101574.72;;;4.96;74.33
64908;BME280;69061;52.236;5.188;2024-03-08T07:06:30;101577.38;;;4.96;74.66
64908;BME280;69061;52.236;5.188;2024-03-08T07:08:58;101560.94;;;4.99;74.55
64908;BME280;69061;52.236;5.188;2024-03-08T07:11:25;101565.31;;;5.12;76.13
64908;BME280;69061;52.236;5.188;2024-03-08T07:13:53;101555.88;;;5.20;74.10
64908;BME280;69061;52.236;5.188;2024-03-08T07:16:20;101558.06;;;5.27;73.16
64908;BME280;69061;52.236;5.188;2024-03-08T07:18:46;101549.84;;;5.28;73.38
64908;BME280;69061;52.236;5.188;2024-03-08T07:21:13;101555.59;;;5.39;74.52
64908;BME280;69061;52.236;5.188;2024-03-08T07:23:40;101556.38;;;5.48;73.18
64908;BME280;69061;52.236;5.188;2024-03-08T07:26:28;101551.09;;;5.57;74.00
64908;BME280;69061;52.236;5.188;2024-03-08T07:28:57;101555.59;;;5.65;73.48
64908;BME280;69061;52.236;5.188;2024-03-08T07:31:25;101543.97;;;5.75;72.42
64908;BME280;69061;52.236;5.188;2024-03-08T07:34:03;101543.94;;;5.93;71.34
64908;BME280;69061;52.236;5.188;2024-03-08T07:36:32;101536.22;;;6.05;71.23
64908;BME280;69061;52.236;5.188;2024-03-08T07:38:59;101525.47;;;6.10;71.03
64908;BME280;69061;52.236;5.188;2024-03-08T07:41:25;101535.38;;;6.31;69.80
64908;BME280;69061;52.236;5.188;2024-03-08T07:43:52;101526.16;;;6.37;68.91
64908;BME280;69061;52.236;5.188;2024-03-08T07:46:20;101530.03;;;6.39;69.18
64908;BME280;69061;52.236;5.188;2024-03-08T07:48:48;101528.63;;;6.51;69.53
64908;BME280;69061;52.236;5.188;2024-03-08T07:51:15;101517.84;;;6.56;67.69
64908;BME280;69061;52.236;5.188;2024-03-08T07:53:43;101530.38;;;6.77;69.50
64908;BME280;69061;52.236;5.188;2024-03-08T07:56:10;101523.75;;;6.91;69.64
64908;BME280;69061;52.236;5.188;2024-03-08T07:58:38;101518.59;;;6.95;67.62
64908;BME280;69061;52.236;5.188;2024-03-08T08:01:06;101504.88;;;7.02;67.09
64908;BME280;69061;52.236;5.188;2024-03-08T08:03:34;101512.63;;;7.28;67.45
64908;BME280;69061;52.236;5.188;2024-03-08T08:06:03;101516.03;;;7.50;66.07
64908;BME280;69061;52.236;5.188;2024-03-08T08:08:30;101507.16;;;7.67;65.45
64908;BME280;69061;52.236;5.188;2024-03-08T08:10:57;101506.25;;;7.96;65.70
64908;BME280;69061;52.236;5.188;2024-03-08T08:13:24;101503.31;;;8.22;64.46
64908;BME280;69061;52.236;5.188;2024-03-08T08:15:53;101504.47;;;8.46;64.66
64908;BME280;69061;52.236;5.188;2024-03-08T08:18:19;101496.41;;;8.67;66.52
64908;BME280;69061;52.236;5.188;2024-03-08T08:20:51;101490.94;;;9.01;63.83
64908;BME280;69061;52.236;5.188;2024-03-08T08:23:18;101498.81;;;9.38;62.41
64908;BME280;69061;52.236;5.188;2024-03-08T08:25:45;101490.75;;;9.63;60.83
64908;BME280;69061;52.236;5.188;2024-03-08T08:28:15;101491.81;;;9.90;59.60
64908;BME280;69061;52.236;5.188;2024-03-08T08:30:42;101476.25;;;10.20;59.73
64908;BME280;69061;52.236;5.188;2024-03-08T08:33:09;101466.97;;;10.46;57.97
64908;BME280;69061;52.236;5.188;2024-03-08T08:35:36;101476.69;;;10.74;56.95
64908;BME280;69061;52.236;5.188;2024-03-08T08:38:04;101457.66;;;10.91;55.79
64908;BME280;69061;52.236;5.188;2024-03-08T08:40:32;101481.13;;;11.25;54.21
64908;BME280;69061;52.236;5.188;2024-03-08T08:42:59;101472.63;;;11.39;52.67
64908;BME280;69061;52.236;5.188;2024-03-08T08:45:26;101471.25;;;11.45;52.10
64908;BME280;69061;52.236;5.188;2024-03-08T08:47:52;101464.84;;;11.50;51.39
64908;BME280;69061;52.236;5.188;2024-03-08T08:50:19;101459.06;;;11.44;50.40
64908;BME280;69061;52.236;5.188;2024-03-08T08:52:48;101464.50;;;11.51;50.89
64908;BME280;69061;52.236;5.188;2024-03-08T08:55:17;101456.66;;;11.58;50.98
64908;BME280;69061;52.236;5.188;2024-03-08T08:57:46;101459.34;;;11.62;50.05
64908;BME280;69061;52.236;5.188;2024-03-08T09:00:13;101457.31;;;11.75;50.79
64908;BME280;69061;52.236;5.188;2024-03-08T09:02:41;101448.50;;;11.94;49.97
64908;BME280;69061;52.236;5.188;2024-03-08T09:05:08;101449.50;;;12.09;48.71
64908;BME280;69061;52.236;5.188;2024-03-08T09:07:35;101443.69;;;12.26;48.16
64908;BME280;69061;52.236;5.188;2024-03-08T09:10:01;101445.78;;;12.40;47.94
64908;BME280;69061;52.236;5.188;2024-03-08T09:12:29;101443.31;;;12.55;47.63
64908;BME280;69061;52.236;5.188;2024-03-08T09:14:58;101442.28;;;12.63;47.17
64908;BME280;69061;52.236;5.188;2024-03-08T09:17:24;101436.25;;;12.70;46.60
64908;BME280;69061;52.236;5.188;2024-03-08T09:19:52;101429.38;;;12.69;45.78
64908;BME280;69061;52.236;5.188;2024-03-08T09:22:19;101429.41;;;12.42;45.35
64908;BME280;69061;52.236;5.188;2024-03-08T09:24:46;101428.94;;;12.09;46.92
64908;BME280;69061;52.236;5.188;2024-03-08T09:27:12;101423.59;;;12.06;46.52
64908;BME280;69061;52.236;5.188;2024-03-08T09:29:40;101419.31;;;12.01;47.16
64908;BME280;69061;52.236;5.188;2024-03-08T09:32:07;101411.69;;;12.00;47.00
64908;BME280;69061;52.236;5.188;2024-03-08T09:34:34;101412.41;;;11.96;47.14
64908;BME280;69061;52.236;5.188;2024-03-08T09:37:00;101409.31;;;11.94;47.64
64908;BME280;69061;52.236;5.188;2024-03-08T09:39:29;101397.81;;;11.90;46.75
64908;BME280;69061;52.236;5.188;2024-03-08T09:41:56;101384.91;;;11.92;47.54
64908;BME280;69061;52.236;5.188;2024-03-08T09:44:22;101393.97;;;12.11;47.80
64908;BME280;69061;52.236;5.188;2024-03-08T09:46:51;101391.81;;;12.20;47.32
64908;BME280;69061;52.236;5.188;2024-03-08T09:49:18;101382.84;;;12.32;47.05
64908;BME280;69061;52.236;5.188;2024-03-08T09:51:46;101373.22;;;12.24;46.59
64908;BME280;69061;52.236;5.188;2024-03-08T09:54:13;101370.84;;;12.19;45.99
64908;BME280;69061;52.236;5.188;2024-03-08T09:56:43;101375.66;;;11.83;46.81
64908;BME280;69061;52.236;5.188;2024-03-08T09:59:10;101347.53;;;11.62;47.34
64908;BME280;69061;52.236;5.188;2024-03-08T10:01:55;101345.78;;;11.23;47.58
64908;BME280;69061;52.236;5.188;2024-03-08T10:04:22;101365.53;;;11.22;48.44
64908;BME280;69061;52.236;5.188;2024-03-08T10:06:49;101344.25;;;11.22;48.14
64908;BME280;69061;52.236;5.188;2024-03-08T10:09:15;101357.56;;;11.22;49.82
64908;BME280;69061;52.236;5.188;2024-03-08T10:11:42;101362.66;;;11.54;49.22
64908;BME280;69061;52.236;5.188;2024-03-08T10:14:09;101359.91;;;11.74;47.66
64908;BME280;69061;52.236;5.188;2024-03-08T10:16:38;101347.19;;;11.87;47.52
64908;BME280;69061;52.236;5.188;2024-03-08T10:19:06;101348.47;;;11.96;47.92
64908;BME280;69061;52.236;5.188;2024-03-08T10:21:33;101331.84;;;12.07;48.20
64908;BME280;69061;52.236;5.188;2024-03-08T10:24:04;101321.84;;;12.27;48.53
64908;BME280;69061;52.236;5.188;2024-03-08T10:26:34;101324.28;;;12.39;47.26
64908;BME280;69061;52.236;5.188;2024-03-08T10:29:03;101329.72;;;12.50;46.28
64908;BME280;69061;52.236;5.188;2024-03-08T10:31:33;101312.38;;;12.63;46.20
64908;BME280;69061;52.236;5.188;2024-03-08T10:34:00;101303.06;;;12.50;46.15
64908;BME280;69061;52.236;5.188;2024-03-08T10:36:29;101305.84;;;12.61;46.98
64908;BME280;69061;52.236;5.188;2024-03-08T10:39:01;101297.97;;;12.72;46.00
64908;BME280;69061;52.236;5.188;2024-03-08T10:41:30;101310.34;;;12.87;46.46
64908;BME280;69061;52.236;5.188;2024-03-08T10:44:10;101293.25;;;12.95;46.46
64908;BME280;69061;52.236;5.188;2024-03-08T10:46:57;101287.31;;;13.13;46.58
64908;BME280;69061;52.236;5.188;2024-03-08T10:49:30;101272.50;;;13.23;46.32
64908;BME280;69061;52.236;5.188;2024-03-08T10:52:02;101253.53;;;13.31;46.76
64908;BME280;69061;52.236;5.188;2024-03-08T10:54:31;101267.47;;;13.62;46.13
64908;BME280;69061;52.236;5.188;2024-03-08T10:57:01;101262.97;;;13.74;45.38
64908;BME280;69061;52.236;5.188;2024-03-08T10:59:31;101246.84;;;13.56;43.31
64908;BME280;69061;52.236;5.188;2024-03-08T11:01:59;101254.16;;;13.70;45.80
64908;BME280;69061;52.236;5.188;2024-03-08T11:04:26;101240.16;;;13.87;46.38
64908;BME280;69061;52.236;5.188;2024-03-08T11:07:04;101246.63;;;13.86;52.11
64908;BME280;69061;52.236;5.188;2024-03-08T11:09:32;101242.81;;;13.91;48.14
64908;BME280;69061;52.236;5.188;2024-03-08T11:12:21;101228.28;;;13.81;47.28
64908;BME280;69061;52.236;5.188;2024-03-08T11:14:51;101232.06;;;13.73;46.86
64908;BME280;69061;52.236;5.188;2024-03-08T11:17:21;101234.75;;;13.80;46.00
64908;BME280;69061;52.236;5.188;2024-03-08T11:19:48;101228.66;;;13.87;45.45
64908;BME280;69061;52.236;5.188;2024-03-08T11:22:23;101221.81;;;13.89;44.22
64908;BME280;69061;52.236;5.188;2024-03-08T11:24:52;101210.41;;;13.92;44.28
64908;BME280;69061;52.236;5.188;2024-03-08T11:27:19;101218.81;;;13.98;44.24
64908;BME280;69061;52.236;5.188;2024-03-08T11:29:59;101213.47;;;13.98;42.70
64908;BME280;69061;52.236;5.188;2024-03-08T11:32:35;101205.06;;;13.92;43.00
64908;BME280;69061;52.236;5.188;2024-03-08T11:35:05;101194.66;;;13.73;41.53
64908;BME280;69061;52.236;5.188;2024-03-08T11:37:35;101187.78;;;13.68;42.77
64908;BME280;69061;52.236;5.188;2024-03-08T11:40:05;101169.06;;;13.64;43.03
64908;BME280;69061;52.236;5.188;2024-03-08T11:42:40;101178.28;;;13.81;42.96
64908;BME280;69061;52.236;5.188;2024-03-08T11:45:08;101159.56;;;13.78;42.52
64908;BME280;69061;52.236;5.188;2024-03-08T11:47:36;101152.72;;;13.84;42.57
64908;BME280;69061;52.236;5.188;2024-03-08T11:50:06;101145.88;;;13.97;43.11
64908;BME280;69061;52.236;5.188;2024-03-08T11:52:37;101147.06;;;14.14;42.63
64908;BME280;69061;52.236;5.188;2024-03-08T11:55:05;101149.38;;;14.23;42.49
64908;BME280;69061;52.236;5.188;2024-03-08T11:57:31;101132.56;;;14.12;42.07
64908;BME280;69061;52.236;5.188;2024-03-08T11:59:59;101136.00;;;14.27;42.25
64908;BME280;69061;52.236;5.188;2024-03-08T12:02:32;101123.06;;;14.40;42.53
64908;BME280;69061;52.236;5.188;2024-03-08T12:05:04;101115.81;;;14.55;42.12
64908;BME280;69061;52.236;5.188;2024-03-08T12:07:34;101117.34;;;14.63;41.50
64908;BME280;69061;52.236;5.188;2024-03-08T12:10:20;101097.44;;;14.60;41.49
64908;BME280;69061;52.236;5.188;2024-03-08T12:12:48;101107.00;;;14.79;41.64
64908;BME280;69061;52.236;5.188;2024-03-08T12:15:19;101106.63;;;14.85;41.02
64908;BME280;69061;52.236;5.188;2024-03-08T12:17:49;101089.78;;;14.95;41.20
64908;BME280;69061;52.236;5.188;2024-03-08T12:20:17;101107.38;;;14.99;41.10
64908;BME280;69061;52.236;5.188;2024-03-08T12:22:47;101100.88;;;14.97;40.19
64908;BME280;69061;52.236;5.188;2024-03-08T12:25:15;101095.91;;;14.81;40.31
64908;BME280;69061;52.236;5.188;2024-03-08T12:27:43;101085.22;;;14.56;39.91
64908;BME280;69061;52.236;5.188;2024-03-08T12:30:19;101072.25;;;14.40;40.44
64908;BME280;69061;52.236;5.188;2024-03-08T12:32:49;101070.72;;;14.49;41.13
64908;BME280;69061;52.236;5.188;2024-03-08T12:35:17;101064.56;;;14.60;40.28
64908;BME280;69061;52.236;5.188;2024-03-08T12:37:44;101079.13;;;14.66;40.30
64908;BME280;69061;52.236;5.188;2024-03-08T12:40:11;101061.53;;;14.69;39.85
64908;BME280;69061;52.236;5.188;2024-03-08T12:42:43;101049.31;;;14.75;39.99
64908;BME280;69061;52.236;5.188;2024-03-08T12:45:12;101053.88;;;14.81;39.71
64908;BME280;69061;52.236;5.188;2024-03-08T12:47:39;101058.88;;;14.72;40.04
64908;BME280;69061;52.236;5.188;2024-03-08T12:50:07;101054.66;;;14.71;40.24
64908;BME280;69061;52.236;5.188;2024-03-08T12:52:37;101056.94;;;14.76;40.36
64908;BME280;69061;52.236;5.188;2024-03-08T12:55:04;101037.84;;;14.71;39.87
64908;BME280;69061;52.236;5.188;2024-03-08T12:57:34;101055.78;;;14.85;39.59
64908;BME280;69061;52.236;5.188;2024-03-08T13:00:04;101040.50;;;14.74;39.66
64908;BME280;69061;52.236;5.188;2024-03-08T13:02:38;101018.00;;;14.64;40.14